Cranbury, New Jersey
Current Conditions -  °F | °C
As of 3:53 PM on Sunday 23 Nov 2014 (Local Time) from KTTN Reporting Station
Clear Clear  
Wind Chill: 53°   Ceiling: Unl
Heat Index: 53°   Visibility: 9mi
Dew Point: 24°   Wind: 7mph
Humidity: 32%   Direction: 190°S
Pressure: 30.13"   Gusts: NA
Location:  40.32°N, 74.51°W
Report Text: KTTN 232053Z 19006KT 9SM CLR 12/M04 A3013 RMK AO2 SLP198 T01171044 55007
Loading
Personal Weather Stations






























Interactive Weather Map New forecast layout! Learn more

10-Day Weather Forecast

Advertisements
Track Severe Weather on mobile